Pershing, Oklahoma
Current Conditions -  °F | °C
As of 3:53 PM on Saturday 25 Oct 2014 (Local Time) from KBVO Reporting Station
Clear Clear  
Wind Chill: 86°   Ceiling: Unl
Heat Index: 87°   Visibility: 10mi
Dew Point: 64°   Wind: 8mph
Humidity: 48%   Direction: 150°SSE
Pressure: 30.02"   Gusts: NA
Location:  36.5242°N, 96.1387°W
Report Text: KBVO 252053Z AUTO 15007KT 10SM CLR 30/18 A3002 RMK AO2 SLP157 T03000178 56017
Loading
Personal Weather Stations






























Interactive Weather Map
Tropical Storm Tracking
New forecast layout! Learn more

10-Day Weather Forecast

Advertisements
Track Severe Weather on mobile